Skip to content
You are here: Gozo Weather
Gozo Weather Station for the very latest live weather conditions from Gozo and Malta
 
 TIME   TEMPERATURE   WINDSPEED   DIRECTION   HUMIDITY   BAROMETER   RAINFALL 
9:05 23.3°C (73.9°F) 20.4 kmh (12.7 mph) NNW 67% 1011.0hPa (29.85 inHg) 0.0mm (0.00 in.)
8:05 22.5°C (72.5 °F) 29.6 kmh (18.4 mph) NW 70% 1011.0hPa (29.85 inHg) 0.0mm (0.00 in.)
6:59 21.9°C (71.4 °F) 18.5 kmh (11.5 mph) N 74% 1011.0hPa (29.85 inHg) 0.0mm (0.00 in.)
5:59 21.8°C (71.2 °F) 25.9 kmh (16.1 mph) NNW 73% 1011.0hPa (29.85 inHg) 0.0mm (0.00 in.)
4:59 21.9°C (71.4 °F) 18.5 kmh (11.5 mph) NW 72% 1011.0hPa (29.85 inHg) 0.0mm (0.00 in.)
3:59 21.9°C (71.4 °F) 22.2 kmh (13.8 mph) N 70% 1011.0hPa (29.85 inHg) 0.0mm (0.00 in.)
2:59 21.9°C (71.4 °F) 24.1 kmh (15.0 mph) NNW 70% 1011.0hPa (29.85 inHg) 0.0mm (0.00 in.)
1:59 22.0°C (71.6 °F) 25.9 kmh (16.1 mph) NW 68% 1011.0hPa (29.85 inHg) 0.0mm (0.00 in.)
12:59 22.1°C (71.8 °F) 29.6 kmh (18.4 mph) NNW 65% 1011.0hPa (29.85 inHg) 0.0mm (0.00 in.)
11:59 22.3°C (72.1 °F) 29.6 kmh (18.4 mph) N 64% 1011.0hPa (29.85 inHg) 0.0mm (0.00 in.)
10:59 22.5°C (72.5 °F) 20.4 kmh (12.7 mph) NNW 64% 1011.0hPa (29.85 inHg) 0.0mm (0.00 in.)
9:59 22.5°C (72.5 °F) 18.5 kmh (11.5 mph) NNW 64% 1011.0hPa (29.85 inHg) 0.0mm (0.00 in.)
8:59 22.8°C (73.0 °F) 18.5 kmh (11.5 mph) WNW 61% 1010.0hPa (29.83 inHg) 0.0mm (0.00 in.)
7:59 23.2°C (73.8 °F) 22.2 kmh (13.8 mph) NW 58% 1010.0hPa (29.83 inHg) 0.0mm (0.00 in.)
6:59 23.8°C (74.8 °F) 18.5 kmh (11.5 mph) WSW 57% 1010.0hPa (29.83 inHg) 0.0mm (0.00 in.)
5:59 24.6°C (76.3 °F) 44.4 kmh (27.6 mph) NW 58% 1010.0hPa (29.83 inHg) 0.0mm (0.00 in.)
4:59 24.9°C (76.8 °F) 40.7 kmh (25.3 mph) SSW 55% 1010.0hPa (29.83 inHg) 0.0mm (0.00 in.)
3:59 25.6°C (78.1 °F) 33.3 kmh (20.7 mph) WNW 54% 1010.0hPa (29.83 inHg) 0.0mm (0.00 in.)
2:59 25.5°C (77.9 °F) 33.3 kmh (20.7 mph) WNW 54% 1010.0hPa (29.83 inHg) 0.0mm (0.00 in.)
1:59 25.5°C (77.9 °F) 29.6 kmh (18.4 mph) NNW 60% 1010.0hPa (29.83 inHg) 0.0mm (0.00 in.)
12:59 25.4°C (77.7 °F) 24.1 kmh (15.0 mph) NNW 64% 1010.0hPa (29.83 inHg) 0.0mm (0.00 in.)
11:59 25.4°C (77.7 °F) 24.1 kmh (15.0 mph) NNW 66% 1011.0hPa (29.85 inHg) 0.0mm (0.00 in.)
10:59 25.2°C (77.4 °F) 27.8 kmh (17.3 mph) NW 66% 1011.0hPa (29.85 inHg) 0.0mm (0.00 in.)
9:59 24.9°C (76.8 °F) 20.4 kmh (12.7 mph) NNW 69% 1011.0hPa (29.85 inHg) 0.0mm (0.00 in.)

You need the latest version of Flash Player to view some of our content.


Why not download and install the latest version now?
It will only take you a moment and will ensure that you can view all the latest flash designed websites.

Translate this page

Animated Satellite

Click per aprire http://www.gozo.ws/Animation.php
copyright 2014 EUMETSAT

European Lightning Activity


Please click image for full size

Sponsored Links